Rechercher aéroport 
image banner adimage banner adimage banner ad
image banner ad

KBWC - Brawley Muni

Situé à Brawley, United States

ICAO - BWC, IATA - BWC

Données fournies par Airmate  

Information générale

Coordonnées: N32°59'35" W115°31'2"
Élévation : -128 feet MSL.
Variation magnétique : 13° East
Voir autres Aéroports à California

Données opérationnelles

Special qualification required
Heure actuelle UTC:
Heure actuelle locale:
Météo à : KIPL - Imperial County ( 19 km )
METAR: KIPL 300053Z AUTO 17008KT 10SM SCT100 44/11 A2964 RMK AO2 SLP037 T04440106
TAF: KIPL 292358Z 3000/3024 VRB05KT P6SM SCT100 BKN250 FM300100 21010KT P6SM VCSH SCT100 BKN150 FM300300 24012KT P6SM FEW100 SCT250 FM300700 16010KT P6SM FEW100 SCT250 FM302200 VRB06KT 6SM BLDU VCSH SCT100 BKN250
Voir NOTAMs / SUP AIP / TFR affectant cet aéroport [VIEW]
Fréquences de communication: [VIEW]

Pistes:

Identifiant RWYQFULongueur (ft)Largeur (ft)SurfaceLDA (ft)
0890°416660ASPH
26270°416660ASPH

Coordonnées de l'aéroport

Adresse: Brawley United States

Vue satellite de KBWC